Time;durP1;ratioP1;P1;durP2;ratioP2;P2;SDS_P1;SDS_P2;PMS_P1;PMS_P2;Temp;Humidity;BMP_temperature;BMP_pressure;BME280_temperature;BME280_humidity;BME280_pressure;Samples;Min_cycle;Max_cycle;Signal;HPM_P1;HPM_P2
2021/04/17 00:01:34;;;;;;;6.90;2.77;;;;;;;;;;5017121;28;20475;-71
2021/04/17 00:04:01;;;;;;;10.93;2.73;;;;;;;;;;5018882;28;20467;-71
2021/04/17 00:06:28;;;;;;;4.40;2.10;;;;;;;;;;5017490;28;20478;-71
2021/04/17 00:08:56;;;;;;;6.17;2.30;;;;;;;;;;5017423;28;20479;-71
2021/04/17 00:11:24;;;;;;;5.60;1.93;;;;;;;;;;5018024;28;20459;-70
2021/04/17 00:13:52;;;;;;;6.90;2.03;;;;;;;;;;5016925;28;20455;-72
2021/04/17 00:16:19;;;;;;;4.97;2.10;;;;;;;;;;5017435;28;20467;-71
2021/04/17 00:18:47;;;;;;;4.80;2.17;;;;;;;;;;5014092;28;20502;-71
2021/04/17 00:21:14;;;;;;;8.13;2.63;;;;;;;;;;5003407;28;20471;-72
2021/04/17 00:23:42;;;;;;;5.60;1.83;;;;;;;;;;5019536;28;20552;-72
2021/04/17 00:26:09;;;;;;;8.20;2.20;;;;;;;;;;5020754;28;20471;-72
2021/04/17 00:28:37;;;;;;;2.43;1.53;;;;;;;;;;5020599;28;20736;-72
2021/04/17 00:31:05;;;;;;;3.97;1.97;;;;;;;;;;5020081;28;20486;-72
2021/04/17 00:33:32;;;;;;;4.60;2.03;;;;;;;;;;5020550;28;20459;-72
2021/04/17 00:35:59;;;;;;;5.47;2.10;;;;;;;;;;5020568;28;20464;-71
2021/04/17 00:38:28;;;;;;;4.00;1.60;;;;;;;;;;5020436;28;20510;-72
2021/04/17 00:40:55;;;;;;;10.43;2.13;;;;;;;;;;5019198;28;20573;-72
2021/04/17 00:43:24;;;;;;;3.23;2.10;;;;;;;;;;5019793;28;20537;-72
2021/04/17 00:45:52;;;;;;;5.00;1.70;;;;;;;;;;5020383;28;20463;-72
2021/04/17 00:48:20;;;;;;;4.80;2.47;;;;;;;;;;5020133;28;20460;-71
2021/04/17 00:50:47;;;;;;;3.40;2.10;;;;;;;;;;5020022;28;20529;-71
2021/04/17 00:53:15;;;;;;;2.70;1.57;;;;;;;;;;4999871;28;20814;-71
2021/04/17 00:55:42;;;;;;;6.70;2.30;;;;;;;;;;5020558;28;20784;-71
2021/04/17 00:58:09;;;;;;;4.33;2.50;;;;;;;;;;5020020;28;20931;-71
2021/04/17 01:00:37;;;;;;;2.97;1.87;;;;;;;;;;5011040;28;20480;-71
2021/04/17 01:03:09;;;;;;;2.60;1.70;;;;;;;;;;5012831;28;20815;-71
2021/04/17 01:05:38;;;;;;;3.53;1.73;;;;;;;;;;5020164;28;20454;-71
2021/04/17 01:08:06;;;;;;;3.17;1.53;;;;;;;;;;5020085;28;20459;-71
2021/04/17 01:10:37;;;;;;;3.33;1.53;;;;;;;;;;5020178;28;20954;-71
2021/04/17 01:13:05;;;;;;;10.70;1.97;;;;;;;;;;5020352;28;20521;-71
2021/04/17 01:15:32;;;;;;;5.33;2.30;;;;;;;;;;5019704;28;21143;-71
2021/04/17 01:18:01;;;;;;;6.00;2.63;;;;;;;;;;5021084;28;20582;-71
2021/04/17 01:20:33;;;;;;;4.63;2.10;;;;;;;;;;5020263;28;20480;-71
2021/04/17 01:23:08;;;;;;;7.60;1.83;;;;;;;;;;5019323;28;20456;-71
2021/04/17 01:25:42;;;;;;;4.90;1.60;;;;;;;;;;5021742;28;20459;-71
2021/04/17 01:28:10;;;;;;;5.10;2.20;;;;;;;;;;5019289;28;20526;-72
2021/04/17 01:30:37;;;;;;;3.93;1.70;;;;;;;;;;5019623;28;20475;-71
2021/04/17 01:33:05;;;;;;;4.73;1.80;;;;;;;;;;5018849;28;21022;-71
2021/04/17 01:35:33;;;;;;;3.53;2.40;;;;;;;;;;5013564;28;20927;-71
2021/04/17 01:38:15;;;;;;;4.47;1.70;;;;;;;;;;4999708;28;20495;-72
2021/04/17 01:40:46;;;;;;;4.93;2.60;;;;;;;;;;4997892;28;20519;-71
2021/04/17 01:43:15;;;;;;;7.67;2.27;;;;;;;;;;4999469;28;20448;-71
2021/04/17 01:45:42;;;;;;;3.03;1.70;;;;;;;;;;4999692;28;20475;-71
2021/04/17 01:48:12;;;;;;;3.57;1.77;;;;;;;;;;4999861;28;20460;-71
2021/04/17 01:50:42;;;;;;;2.93;1.80;;;;;;;;;;5000106;28;20476;-72
2021/04/17 01:53:12;;;;;;;4.27;2.00;;;;;;;;;;4999439;28;20466;-71
2021/04/17 01:55:39;;;;;;;3.73;2.40;;;;;;;;;;5004210;28;20490;-71
2021/04/17 01:58:08;;;;;;;4.00;1.70;;;;;;;;;;5018892;28;20488;-71
2021/04/17 02:00:36;;;;;;;3.87;2.00;;;;;;;;;;5018516;28;20479;-71
2021/04/17 02:03:03;;;;;;;6.73;2.77;;;;;;;;;;5014151;28;20478;-71
2021/04/17 02:05:30;;;;;;;3.60;1.93;;;;;;;;;;5018780;28;20474;-71
2021/04/17 02:07:58;;;;;;;3.00;1.60;;;;;;;;;;5018393;28;20464;-72
2021/04/17 02:10:28;;;;;;;3.37;1.83;;;;;;;;;;5019042;28;20468;-72
2021/04/17 02:12:55;;;;;;;5.83;2.27;;;;;;;;;;5017876;28;20440;-72
2021/04/17 02:15:26;;;;;;;10.50;2.50;;;;;;;;;;5018101;28;20501;-72
2021/04/17 02:17:58;;;;;;;3.80;2.27;;;;;;;;;;5018721;28;20846;-72
2021/04/17 02:20:29;;;;;;;2.80;1.77;;;;;;;;;;5018522;28;20494;-72
2021/04/17 02:22:57;;;;;;;5.40;2.00;;;;;;;;;;5016576;28;20478;-71
2021/04/17 02:25:24;;;;;;;3.37;1.97;;;;;;;;;;5018791;28;20479;-71
2021/04/17 02:27:51;;;;;;;4.67;2.27;;;;;;;;;;5001654;28;20502;-71
2021/04/17 02:30:19;;;;;;;3.30;2.07;;;;;;;;;;4998460;28;20478;-72
2021/04/17 02:32:47;;;;;;;5.03;2.33;;;;;;;;;;4999079;28;20464;-71
2021/04/17 02:35:15;;;;;;;5.17;2.47;;;;;;;;;;4998209;28;20530;-71
2021/04/17 02:37:42;;;;;;;4.83;2.30;;;;;;;;;;4997733;28;20488;-71
2021/04/17 02:40:10;;;;;;;4.03;2.10;;;;;;;;;;4997781;28;20464;-71
2021/04/17 02:42:40;;;;;;;8.20;2.57;;;;;;;;;;4997919;28;20456;-71
2021/04/17 02:45:08;;;;;;;4.17;2.13;;;;;;;;;;5012081;28;20471;-71
2021/04/17 02:47:35;;;;;;;5.33;2.57;;;;;;;;;;5016982;28;20502;-70
2021/04/17 02:50:05;;;;;;;6.63;2.70;;;;;;;;;;5018350;28;20748;-71
2021/04/17 02:52:33;;;;;;;9.10;1.93;;;;;;;;;;5005848;28;20452;-71
2021/04/17 02:55:00;;;;;;;5.00;2.77;;;;;;;;;;4998559;28;20468;-71
2021/04/17 02:57:28;;;;;;;4.33;1.63;;;;;;;;;;5015553;28;20483;-71
2021/04/17 02:59:55;;;;;;;7.17;3.23;;;;;;;;;;5017144;28;20468;-72
2021/04/17 03:02:22;;;;;;;4.80;2.30;;;;;;;;;;4999441;28;20461;-72
2021/04/17 03:04:50;;;;;;;6.50;2.70;;;;;;;;;;4997346;28;20460;-72
2021/04/17 03:07:19;;;;;;;5.13;2.43;;;;;;;;;;4998121;28;20538;-72
2021/04/17 03:09:46;;;;;;;3.97;2.87;;;;;;;;;;4997899;28;20469;-71
2021/04/17 03:12:14;;;;;;;3.40;1.80;;;;;;;;;;4998153;28;20522;-71
2021/04/17 03:14:41;;;;;;;6.27;2.30;;;;;;;;;;4998234;28;20472;-71
2021/04/17 03:17:11;;;;;;;5.77;1.80;;;;;;;;;;4997882;28;20722;-71
2021/04/17 03:19:38;;;;;;;3.30;2.20;;;;;;;;;;4997991;28;20722;-71
2021/04/17 03:22:07;;;;;;;4.07;2.57;;;;;;;;;;4998586;28;20448;-71
2021/04/17 03:24:36;;;;;;;5.10;2.70;;;;;;;;;;4997720;28;20465;-71
2021/04/17 03:27:04;;;;;;;7.53;2.33;;;;;;;;;;5014692;28;20456;-71
2021/04/17 03:29:31;;;;;;;3.33;2.00;;;;;;;;;;5017274;28;20466;-71
2021/04/17 03:31:58;;;;;;;5.57;4.00;;;;;;;;;;5016944;28;20880;-71
2021/04/17 03:34:51;;;;;;;7.20;2.40;;;;;;;;;;5017014;28;20489;-71
2021/04/17 03:37:18;;;;;;;4.50;3.70;;;;;;;;;;5019111;28;20467;-71
2021/04/17 03:39:46;;;;;;;3.37;1.90;;;;;;;;;;5017063;28;20459;-71
2021/04/17 03:42:13;;;;;;;5.70;2.50;;;;;;;;;;5017952;28;20474;-72
2021/04/17 03:44:41;;;;;;;4.77;2.20;;;;;;;;;;5017853;28;20470;-71
2021/04/17 03:47:10;;;;;;;6.00;2.70;;;;;;;;;;5017099;28;20880;-72
2021/04/17 03:49:37;;;;;;;3.83;2.40;;;;;;;;;;5018080;28;20468;-72
2021/04/17 03:52:05;;;;;;;5.47;1.97;;;;;;;;;;5017432;28;20832;-71
2021/04/17 03:54:35;;;;;;;7.73;2.27;;;;;;;;;;5017566;28;20562;-71
2021/04/17 03:57:04;;;;;;;4.87;2.27;;;;;;;;;;5017223;28;20473;-72
2021/04/17 03:59:31;;;;;;;9.07;2.10;;;;;;;;;;5020911;28;20795;-71
2021/04/17 04:01:58;;;;;;;5.23;3.63;;;;;;;;;;5021367;28;20545;-71
2021/04/17 04:04:29;;;;;;;5.70;3.00;;;;;;;;;;5020353;28;20456;-72
2021/04/17 04:06:59;;;;;;;2.80;1.83;;;;;;;;;;5021167;28;20470;-73
2021/04/17 04:09:27;;;;;;;9.23;3.53;;;;;;;;;;5021118;28;20455;-71
2021/04/17 04:11:54;;;;;;;6.50;2.80;;;;;;;;;;5019786;28;20752;-71
2021/04/17 04:14:23;;;;;;;6.40;2.63;;;;;;;;;;5021408;28;20554;-71
2021/04/17 04:16:50;;;;;;;6.53;2.33;;;;;;;;;;5020490;28;20451;-71
2021/04/17 04:19:18;;;;;;;7.43;2.80;;;;;;;;;;5019660;28;20486;-72
2021/04/17 04:21:45;;;;;;;8.23;2.70;;;;;;;;;;5020711;28;20460;-71
2021/04/17 04:24:12;;;;;;;6.50;2.20;;;;;;;;;;5020532;28;20719;-71
2021/04/17 04:26:40;;;;;;;6.37;2.83;;;;;;;;;;5020072;28;20482;-71
2021/04/17 04:29:07;;;;;;;8.40;2.17;;;;;;;;;;5020247;28;20467;-72
2021/04/17 04:31:35;;;;;;;6.20;2.10;;;;;;;;;;5018816;28;20884;-72
2021/04/17 04:34:03;;;;;;;4.50;2.30;;;;;;;;;;5020350;28;20459;-72
2021/04/17 04:36:31;;;;;;;4.90;2.33;;;;;;;;;;5019917;28;20506;-72
2021/04/17 04:38:58;;;;;;;5.60;2.27;;;;;;;;;;5020141;28;20519;-71
2021/04/17 04:41:25;;;;;;;5.13;2.63;;;;;;;;;;5020784;28;20467;-72
2021/04/17 04:43:56;;;;;;;5.87;2.20;;;;;;;;;;5020427;28;20463;-71
2021/04/17 04:46:25;;;;;;;6.20;2.70;;;;;;;;;;5020238;28;20468;-72
2021/04/17 04:48:53;;;;;;;6.03;2.97;;;;;;;;;;5020100;28;20483;-71
2021/04/17 04:51:21;;;;;;;5.50;2.10;;;;;;;;;;5019289;28;20467;-71
2021/04/17 04:53:50;;;;;;;6.20;2.37;;;;;;;;;;5020775;28;20467;-71
2021/04/17 04:56:18;;;;;;;4.30;2.20;;;;;;;;;;5019874;28;20492;-71
2021/04/17 04:58:45;;;;;;;7.30;2.30;;;;;;;;;;5018736;28;20483;-71
2021/04/17 05:01:12;;;;;;;5.33;2.07;;;;;;;;;;5004242;28;20848;-71
2021/04/17 05:03:41;;;;;;;5.80;2.40;;;;;;;;;;5019627;28;20852;-71
2021/04/17 05:06:09;;;;;;;5.27;2.37;;;;;;;;;;5020760;28;20455;-72
2021/04/17 05:08:37;;;;;;;6.37;2.40;;;;;;;;;;5019568;28;20491;-71
2021/04/17 05:11:04;;;;;;;5.60;2.63;;;;;;;;;;5018976;28;20471;-71
2021/04/17 05:13:32;;;;;;;5.40;2.60;;;;;;;;;;5019845;28;20472;-71
2021/04/17 05:15:59;;;;;;;4.43;1.93;;;;;;;;;;5019455;28;20867;-71
2021/04/17 05:18:26;;;;;;;6.03;2.87;;;;;;;;;;5019793;28;20526;-71
2021/04/17 05:20:54;;;;;;;6.50;2.03;;;;;;;;;;5019774;28;20455;-71
2021/04/17 05:23:22;;;;;;;5.90;2.33;;;;;;;;;;5019464;28;20472;-71
2021/04/17 05:25:52;;;;;;;5.13;2.60;;;;;;;;;;5005599;28;20866;-71
2021/04/17 05:28:19;;;;;;;6.73;2.50;;;;;;;;;;5000444;28;20879;-71
2021/04/17 05:30:47;;;;;;;3.93;1.67;;;;;;;;;;5000172;28;20471;-71
2021/04/17 05:33:15;;;;;;;5.43;2.50;;;;;;;;;;5000465;28;20785;-71
2021/04/17 05:35:42;;;;;;;6.53;2.60;;;;;;;;;;5000510;28;20458;-71
2021/04/17 05:38:13;;;;;;;3.00;1.80;;;;;;;;;;5007163;28;20783;-71
2021/04/17 05:40:42;;;;;;;6.00;2.43;;;;;;;;;;5018870;28;20546;-71
2021/04/17 05:43:10;;;;;;;3.03;1.83;;;;;;;;;;5019521;28;20459;-71
2021/04/17 05:45:37;;;;;;;4.50;2.20;;;;;;;;;;5021155;28;20467;-71
2021/04/17 05:48:23;;;;;;;3.97;2.20;;;;;;;;;;5019650;28;20475;-72
2021/04/17 05:50:53;;;;;;;7.80;2.30;;;;;;;;;;5018600;28;20451;-71
2021/04/17 05:53:21;;;;;;;4.80;2.20;;;;;;;;;;5018660;28;20474;-71
2021/04/17 05:55:49;;;;;;;8.57;2.70;;;;;;;;;;5018065;28;20451;-72
2021/04/17 05:58:16;;;;;;;6.27;2.20;;;;;;;;;;5018481;28;20573;-71
2021/04/17 06:00:44;;;;;;;7.20;2.13;;;;;;;;;;5018309;28;20887;-71
2021/04/17 06:03:11;;;;;;;5.10;2.53;;;;;;;;;;5018618;28;20866;-71
2021/04/17 06:05:38;;;;;;;4.50;2.00;;;;;;;;;;5019066;28;20467;-71
2021/04/17 06:08:06;;;;;;;4.40;2.20;;;;;;;;;;5017679;28;20471;-71
2021/04/17 06:10:33;;;;;;;4.00;2.20;;;;;;;;;;5018896;28;20484;-71
2021/04/17 06:13:02;;;;;;;6.40;2.70;;;;;;;;;;5018214;28;20522;-71
2021/04/17 06:15:29;;;;;;;6.40;3.40;;;;;;;;;;5017388;28;20487;-72
2021/04/17 06:17:57;;;;;;;3.53;2.23;;;;;;;;;;5018197;28;20499;-71
2021/04/17 06:20:24;;;;;;;6.00;2.37;;;;;;;;;;5017926;28;20852;-71
2021/04/17 06:22:51;;;;;;;6.00;2.83;;;;;;;;;;5018372;28;20501;-71
2021/04/17 06:25:19;;;;;;;5.77;2.30;;;;;;;;;;5017967;28;20896;-71
2021/04/17 06:27:46;;;;;;;7.60;2.47;;;;;;;;;;5018043;28;20487;-71
2021/04/17 06:30:18;;;;;;;6.97;2.97;;;;;;;;;;5018056;28;20459;-71
2021/04/17 06:32:46;;;;;;;4.80;2.30;;;;;;;;;;5017747;28;20475;-71
2021/04/17 06:35:16;;;;;;;4.30;2.50;;;;;;;;;;5018407;28;20478;-71
2021/04/17 06:37:43;;;;;;;5.87;2.70;;;;;;;;;;5017784;28;20463;-71
2021/04/17 06:40:11;;;;;;;3.00;1.90;;;;;;;;;;5017254;28;20529;-71
2021/04/17 06:42:41;;;;;;;5.57;2.47;;;;;;;;;;5017667;28;20538;-72
2021/04/17 06:45:09;;;;;;;6.67;2.03;;;;;;;;;;5017804;28;20464;-71
2021/04/17 06:47:39;;;;;;;3.50;2.17;;;;;;;;;;5016893;28;20530;-70
2021/04/17 06:50:21;;;;;;;8.30;3.23;;;;;;;;;;5010131;28;20915;-70
2021/04/17 06:52:51;;;;;;;5.40;2.50;;;;;;;;;;5017330;28;20467;-71
2021/04/17 06:55:19;;;;;;;5.00;2.77;;;;;;;;;;5017814;28;20745;-71
2021/04/17 06:57:46;;;;;;;3.83;2.00;;;;;;;;;;5017184;28;20946;-70
2021/04/17 07:00:14;;;;;;;6.30;2.53;;;;;;;;;;5017009;28;20969;-70
2021/04/17 07:02:43;;;;;;;6.30;3.13;;;;;;;;;;5017210;28;20468;-69
2021/04/17 07:05:11;;;;;;;5.17;2.00;;;;;;;;;;5016673;28;20475;-72
2021/04/17 07:07:39;;;;;;;8.47;2.97;;;;;;;;;;4998316;28;20463;-70
2021/04/17 07:10:06;;;;;;;9.23;3.20;;;;;;;;;;5004449;28;20451;-70
2021/04/17 07:12:35;;;;;;;5.60;2.30;;;;;;;;;;5015595;28;20459;-72
2021/04/17 07:15:05;;;;;;;11.37;3.10;;;;;;;;;;5011765;28;20606;-72
2021/04/17 07:17:34;;;;;;;5.93;2.63;;;;;;;;;;5015616;28;20455;-71
2021/04/17 07:20:04;;;;;;;7.40;2.40;;;;;;;;;;5016493;28;20491;-71
2021/04/17 07:22:32;;;;;;;6.83;2.40;;;;;;;;;;5016114;28;20456;-71
2021/04/17 07:25:14;;;;;;;4.03;2.43;;;;;;;;;;5017032;28;20872;-70
2021/04/17 07:27:43;;;;;;;5.07;2.67;;;;;;;;;;5016785;28;20463;-72
2021/04/17 07:30:29;;;;;;;5.73;2.27;;;;;;;;;;5017315;28;20526;-72
2021/04/17 07:33:09;;;;;;;9.80;2.80;;;;;;;;;;5019579;28;20470;-72
2021/04/17 07:35:39;;;;;;;7.97;3.10;;;;;;;;;;5021815;28;20487;-70
2021/04/17 07:38:14;;;;;;;6.07;2.07;;;;;;;;;;5017032;28;20578;-71
2021/04/17 07:40:41;;;;;;;5.87;2.73;;;;;;;;;;5021655;28;20516;-70
2021/04/17 07:43:09;;;;;;;5.07;2.37;;;;;;;;;;5020701;28;20529;-72
2021/04/17 07:45:37;;;;;;;6.77;2.30;;;;;;;;;;5021893;28;20522;-70
2021/04/17 07:48:20;;;;;;;5.17;2.50;;;;;;;;;;5021171;28;20734;-70
2021/04/17 07:50:48;;;;;;;3.07;1.90;;;;;;;;;;5021725;28;20528;-71
2021/04/17 07:53:35;;;;;;;6.27;3.40;;;;;;;;;;5022513;28;20501;-71
2021/04/17 07:56:17;;;;;;;4.63;2.03;;;;;;;;;;5018685;28;20958;-71
2021/04/17 07:58:48;;;;;;;7.43;4.43;;;;;;;;;;5013139;28;20849;-70
2021/04/17 08:01:16;;;;;;;4.17;2.23;;;;;;;;;;5018744;28;20477;-71
2021/04/17 08:03:45;;;;;;;5.37;3.40;;;;;;;;;;5019481;28;20471;-70
2021/04/17 08:06:14;;;;;;;5.60;2.83;;;;;;;;;;5019516;28;20495;-71
2021/04/17 08:08:42;;;;;;;4.43;1.90;;;;;;;;;;5018639;28;20790;-70
2021/04/17 08:11:11;;;;;;;3.60;2.23;;;;;;;;;;5019297;28;20471;-70
2021/04/17 08:13:39;;;;;;;4.80;2.40;;;;;;;;;;5019868;28;20460;-70
2021/04/17 08:16:08;;;;;;;2.87;1.83;;;;;;;;;;5019654;28;20451;-70
2021/04/17 08:18:39;;;;;;;5.70;2.50;;;;;;;;;;5010664;28;20491;-71
2021/04/17 08:21:09;;;;;;;4.17;2.20;;;;;;;;;;5019883;28;20456;-69
2021/04/17 08:23:46;;;;;;;6.30;2.00;;;;;;;;;;5019683;28;20475;-70
2021/04/17 08:26:32;;;;;;;6.83;2.73;;;;;;;;;;5020052;28;20586;-71
2021/04/17 08:29:00;;;;;;;6.70;2.03;;;;;;;;;;5019106;28;20489;-71
2021/04/17 08:31:30;;;;;;;5.67;2.40;;;;;;;;;;5019928;28;20883;-71
2021/04/17 08:34:08;;;;;;;2.50;1.60;;;;;;;;;;5019457;28;20456;-71
2021/04/17 08:36:37;;;;;;;6.03;2.20;;;;;;;;;;5017592;28;20784;-71
2021/04/17 08:39:07;;;;;;;4.27;1.87;;;;;;;;;;5020281;28;20486;-71
2021/04/17 08:41:45;;;;;;;4.07;1.70;;;;;;;;;;5020189;28;20448;-71
2021/04/17 08:44:25;;;;;;;5.20;1.73;;;;;;;;;;5020637;28;20465;-71
2021/04/17 08:46:53;;;;;;;4.90;2.10;;;;;;;;;;5020453;28;20447;-71
2021/04/17 08:49:27;;;;;;;3.50;2.23;;;;;;;;;;5020472;28;20499;-71
2021/04/17 08:52:19;;;;;;;2.90;2.10;;;;;;;;;;5019727;28;20594;-71
2021/04/17 08:55:09;;;;;;;3.20;1.43;;;;;;;;;;5019131;28;20463;-71
2021/04/17 08:57:42;;;;;;;4.93;1.20;;;;;;;;;;5019228;28;20460;-72
2021/04/17 09:00:10;;;;;;;2.20;1.13;;;;;;;;;;5017806;28;21251;-71
2021/04/17 09:02:51;;;;;;;3.53;1.83;;;;;;;;;;5019364;28;20758;-71
2021/04/17 09:05:19;;;;;;;3.40;1.60;;;;;;;;;;5018896;28;20534;-70
2021/04/17 09:08:07;;;;;;;2.50;1.07;;;;;;;;;;5019378;28;20456;-72
2021/04/17 09:10:36;;;;;;;3.10;1.27;;;;;;;;;;5017520;28;20467;-72
2021/04/17 09:13:22;;;;;;;3.00;1.40;;;;;;;;;;5019418;28;20463;-72
2021/04/17 09:15:53;;;;;;;2.73;1.30;;;;;;;;;;5016035;28;20903;-71
2021/04/17 09:18:35;;;;;;;2.73;1.83;;;;;;;;;;5018408;28;20483;-72
2021/04/17 09:21:23;;;;;;;4.70;1.80;;;;;;;;;;5017159;28;20460;-71
2021/04/17 09:23:53;;;;;;;7.83;1.60;;;;;;;;;;5015554;28;20909;-71
2021/04/17 09:26:40;;;;;;;4.33;1.20;;;;;;;;;;5002664;28;20501;-71
2021/04/17 09:29:09;;;;;;;4.20;3.40;;;;;;;;;;5018970;28;20753;-71
2021/04/17 09:31:39;;;;;;;2.33;1.60;;;;;;;;;;5017630;28;20965;-71
2021/04/17 09:34:12;;;;;;;2.67;1.50;;;;;;;;;;5018515;28;20491;-71
2021/04/17 09:36:45;;;;;;;3.83;1.50;;;;;;;;;;5018383;28;20459;-72
2021/04/17 09:39:38;;;;;;;3.50;1.93;;;;;;;;;;5018871;28;20578;-72
2021/04/17 09:42:06;;;;;;;3.33;1.60;;;;;;;;;;4998315;28;20578;-71
2021/04/17 09:44:45;;;;;;;2.23;1.00;;;;;;;;;;4998942;28;20487;-70
2021/04/17 09:47:20;;;;;;;6.30;1.70;;;;;;;;;;5004178;28;20872;-72
2021/04/17 09:49:53;;;;;;;10.00;2.00;;;;;;;;;;5018646;28;20543;-72
2021/04/17 09:52:26;;;;;;;2.87;1.43;;;;;;;;;;5018015;28;20754;-72
2021/04/17 09:55:04;;;;;;;3.47;1.90;;;;;;;;;;5018599;28;20455;-71
2021/04/17 09:57:36;;;;;;;4.40;1.63;;;;;;;;;;5016613;28;20459;-72
2021/04/17 10:00:07;;;;;;;3.10;1.43;;;;;;;;;;5017135;28;20598;-72
2021/04/17 10:02:41;;;;;;;8.77;1.90;;;;;;;;;;5017899;28;20459;-71
2021/04/17 10:05:20;;;;;;;4.40;1.73;;;;;;;;;;5017373;28;20467;-72
2021/04/17 10:07:54;;;;;;;5.37;2.00;;;;;;;;;;5013621;28;20546;-72
2021/04/17 10:10:24;;;;;;;3.10;1.40;;;;;;;;;;5016305;28;20579;-72
2021/04/17 10:12:55;;;;;;;4.40;1.70;;;;;;;;;;5018189;28;20468;-72
2021/04/17 10:15:26;;;;;;;4.90;1.80;;;;;;;;;;5017395;28;20460;-72
2021/04/17 10:17:58;;;;;;;2.83;1.20;;;;;;;;;;5012889;28;20864;-73
2021/04/17 10:20:30;;;;;;;4.20;1.63;;;;;;;;;;5015602;28;20491;-72
2021/04/17 10:23:09;;;;;;;3.23;1.57;;;;;;;;;;5011573;28;20533;-71
2021/04/17 10:25:40;;;;;;;4.23;1.73;;;;;;;;;;5016984;28;20451;-70
2021/04/17 10:28:13;;;;;;;6.10;4.17;;;;;;;;;;5015701;28;20521;-70
2021/04/17 10:30:42;;;;;;;4.00;1.50;;;;;;;;;;4999742;28;20947;-71
2021/04/17 10:33:17;;;;;;;2.77;1.30;;;;;;;;;;5013634;28;20470;-71
2021/04/17 10:35:47;;;;;;;4.40;1.90;;;;;;;;;;5016108;28;20870;-71
2021/04/17 10:38:32;;;;;;;3.80;1.80;;;;;;;;;;5015918;28;20475;-71
2021/04/17 10:41:01;;;;;;;5.03;1.60;;;;;;;;;;5015902;28;20612;-71
2021/04/17 10:43:41;;;;;;;3.50;1.43;;;;;;;;;;5011424;28;20479;-72
2021/04/17 10:46:13;;;;;;;5.97;1.83;;;;;;;;;;5008468;28;20573;-72
2021/04/17 10:48:43;;;;;;;3.27;1.77;;;;;;;;;;5016091;28;20482;-72
2021/04/17 10:51:29;;;;;;;2.00;1.20;;;;;;;;;;4996670;28;20463;-71
2021/04/17 10:54:06;;;;;;;3.00;1.43;;;;;;;;;;4995867;28;20464;-71
2021/04/17 10:56:36;;;;;;;2.40;1.50;;;;;;;;;;5004520;28;20790;-71
2021/04/17 10:59:28;;;;;;;2.53;1.30;;;;;;;;;;5015861;28;20483;-71
2021/04/17 11:02:06;;;;;;;6.53;1.83;;;;;;;;;;5012384;28;20490;-71
2021/04/17 11:04:46;;;;;;;15.03;11.23;;;;;;;;;;5015439;28;20467;-72
2021/04/17 11:07:17;;;;;;;4.43;2.07;;;;;;;;;;5014246;28;20483;-72
2021/04/17 11:09:51;;;;;;;2.40;1.30;;;;;;;;;;5013062;28;20475;-71
2021/04/17 11:12:29;;;;;;;2.73;1.30;;;;;;;;;;5007348;28;20551;-72
2021/04/17 11:15:16;;;;;;;3.83;1.90;;;;;;;;;;4996158;28;20472;-71
2021/04/17 11:17:46;;;;;;;3.50;1.80;;;;;;;;;;5014282;28;20541;-71
2021/04/17 11:20:21;;;;;;;3.27;1.33;;;;;;;;;;5011963;28;20491;-73
2021/04/17 11:22:56;;;;;;;5.80;2.53;;;;;;;;;;4995745;28;20522;-71
2021/04/17 11:25:24;;;;;;;7.10;1.30;;;;;;;;;;4996354;28;20468;-71
2021/04/17 11:27:52;;;;;;;3.70;1.67;;;;;;;;;;5016782;28;20554;-70
2021/04/17 11:30:19;;;;;;;2.13;1.20;;;;;;;;;;5015714;28;20521;-70
2021/04/17 11:32:49;;;;;;;3.17;1.50;;;;;;;;;;5016275;28;20495;-71
2021/04/17 11:35:17;;;;;;;3.30;1.57;;;;;;;;;;5012106;28;20459;-70
2021/04/17 11:37:44;;;;;;;4.67;2.03;;;;;;;;;;5016807;28;20466;-71
2021/04/17 11:40:12;;;;;;;4.20;2.20;;;;;;;;;;5015658;28;20480;-70
2021/04/17 11:42:42;;;;;;;2.20;1.20;;;;;;;;;;5003761;28;20511;-72
2021/04/17 11:45:12;;;;;;;4.10;1.50;;;;;;;;;;5014835;28;20464;-72
2021/04/17 11:47:41;;;;;;;3.13;1.63;;;;;;;;;;5016430;28;20538;-72
2021/04/17 11:50:11;;;;;;;3.97;1.50;;;;;;;;;;5015869;28;20463;-72
2021/04/17 11:52:39;;;;;;;2.63;1.10;;;;;;;;;;5016611;28;20491;-71
2021/04/17 11:55:08;;;;;;;3.23;1.10;;;;;;;;;;5015640;28;20897;-71
2021/04/17 11:57:36;;;;;;;3.47;1.27;;;;;;;;;;5014630;28;20467;-72
2021/04/17 12:00:04;;;;;;;8.17;2.10;;;;;;;;;;5015346;28;20499;-72
2021/04/17 12:02:32;;;;;;;4.70;1.60;;;;;;;;;;5016165;28;20463;-73
2021/04/17 12:05:00;;;;;;;6.67;1.50;;;;;;;;;;5016426;28;20451;-72
2021/04/17 12:07:32;;;;;;;4.50;1.77;;;;;;;;;;5015194;28;20476;-70
2021/04/17 12:10:02;;;;;;;2.10;1.23;;;;;;;;;;5015752;28;20464;-71
2021/04/17 12:12:29;;;;;;;5.10;1.87;;;;;;;;;;5016108;28;20472;-71
2021/04/17 12:14:56;;;;;;;4.00;1.13;;;;;;;;;;5015582;28;20459;-71
2021/04/17 12:17:24;;;;;;;4.83;1.90;;;;;;;;;;5015774;28;20459;-71
2021/04/17 12:19:51;;;;;;;3.07;1.33;;;;;;;;;;5019166;28;21178;-71
2021/04/17 12:22:20;;;;;;;2.40;1.47;;;;;;;;;;5018676;28;20467;-71
2021/04/17 12:24:55;;;;;;;5.00;1.93;;;;;;;;;;5015091;28;20761;-71
2021/04/17 12:27:26;;;;;;;4.27;1.90;;;;;;;;;;5014327;28;20541;-73
2021/04/17 12:29:55;;;;;;;3.57;1.17;;;;;;;;;;5019137;28;20467;-71
2021/04/17 12:32:24;;;;;;;3.40;1.57;;;;;;;;;;5018949;28;20474;-71
2021/04/17 12:34:52;;;;;;;4.87;1.50;;;;;;;;;;5016820;28;20526;-71
2021/04/17 12:37:27;;;;;;;5.80;2.03;;;;;;;;;;5019249;28;20728;-72
2021/04/17 12:40:05;;;;;;;3.80;1.47;;;;;;;;;;5019156;28;20486;-73
2021/04/17 12:42:38;;;;;;;2.87;1.50;;;;;;;;;;5019443;28;20463;-72
2021/04/17 12:45:06;;;;;;;4.67;1.53;;;;;;;;;;5019862;28;20460;-72
2021/04/17 12:47:35;;;;;;;3.80;1.57;;;;;;;;;;5020544;28;20471;-71
2021/04/17 12:50:03;;;;;;;4.23;2.07;;;;;;;;;;5019188;28;20475;-70
2021/04/17 12:52:31;;;;;;;3.60;2.13;;;;;;;;;;5018970;28;20507;-70
2021/04/17 12:55:00;;;;;;;3.20;1.70;;;;;;;;;;5019827;28;20455;-71
2021/04/17 12:57:27;;;;;;;6.03;1.70;;;;;;;;;;5019761;28;20804;-70
2021/04/17 12:59:55;;;;;;;6.83;2.77;;;;;;;;;;5018721;28;20535;-70
2021/04/17 13:02:23;;;;;;;6.27;2.00;;;;;;;;;;5019453;28;20463;-71
2021/04/17 13:04:50;;;;;;;5.50;1.77;;;;;;;;;;5018920;28;20884;-71
2021/04/17 13:07:18;;;;;;;4.60;1.73;;;;;;;;;;5019568;28;20810;-71
2021/04/17 13:09:49;;;;;;;5.20;1.97;;;;;;;;;;5019258;28;20528;-71
2021/04/17 13:12:18;;;;;;;4.20;1.97;;;;;;;;;;5019305;28;20941;-71
2021/04/17 13:14:47;;;;;;;2.80;1.40;;;;;;;;;;5020098;28;20466;-71
2021/04/17 13:17:15;;;;;;;5.40;1.97;;;;;;;;;;5019371;28;20470;-72
2021/04/17 13:19:43;;;;;;;7.87;1.87;;;;;;;;;;5017661;28;20545;-72
2021/04/17 13:22:11;;;;;;;4.30;2.23;;;;;;;;;;5019812;28;20454;-71
2021/04/17 13:24:38;;;;;;;4.10;2.30;;;;;;;;;;5019053;28;20487;-71
2021/04/17 13:27:07;;;;;;;3.47;2.20;;;;;;;;;;5019166;28;20510;-71
2021/04/17 13:29:36;;;;;;;4.07;2.00;;;;;;;;;;5019199;28;20470;-71
2021/04/17 13:32:03;;;;;;;7.03;2.47;;;;;;;;;;5018370;28;20510;-72
2021/04/17 13:34:30;;;;;;;3.87;2.60;;;;;;;;;;5019510;28;20799;-71
2021/04/17 13:36:58;;;;;;;3.90;2.20;;;;;;;;;;5019322;28;20589;-70
2021/04/17 13:39:26;;;;;;;5.60;2.47;;;;;;;;;;5018884;28;20896;-71
2021/04/17 13:41:53;;;;;;;3.63;2.17;;;;;;;;;;5018375;28;20456;-72
2021/04/17 13:44:21;;;;;;;3.97;2.57;;;;;;;;;;5018032;28;20474;-71
2021/04/17 13:46:49;;;;;;;7.40;2.70;;;;;;;;;;5016652;28;20546;-71
2021/04/17 13:49:16;;;;;;;4.03;2.87;;;;;;;;;;5016239;28;20917;-71
2021/04/17 13:51:44;;;;;;;5.40;2.90;;;;;;;;;;5018611;28;20724;-70
2021/04/17 13:54:18;;;;;;;5.07;2.30;;;;;;;;;;5017908;28;20509;-71
2021/04/17 13:56:45;;;;;;;4.90;2.27;;;;;;;;;;5017421;28;20456;-71
2021/04/17 13:59:13;;;;;;;6.30;2.60;;;;;;;;;;5017529;28;20590;-73
2021/04/17 14:01:41;;;;;;;4.50;2.07;;;;;;;;;;5016969;28;20469;-71
2021/04/17 14:04:12;;;;;;;4.50;2.30;;;;;;;;;;5016974;28;20463;-71
2021/04/17 14:06:41;;;;;;;4.47;2.23;;;;;;;;;;5017110;28;20739;-71
2021/04/17 14:09:13;;;;;;;3.97;2.10;;;;;;;;;;5018027;28;20463;-71
2021/04/17 14:11:40;;;;;;;6.40;2.70;;;;;;;;;;5017864;28;20883;-70
2021/04/17 14:14:08;;;;;;;5.60;3.00;;;;;;;;;;5017789;28;20451;-72
2021/04/17 14:16:36;;;;;;;5.47;2.53;;;;;;;;;;5016751;28;20886;-71
2021/04/17 14:19:04;;;;;;;4.63;2.60;;;;;;;;;;5017319;28;20499;-71
2021/04/17 14:21:32;;;;;;;8.87;3.50;;;;;;;;;;5017035;28;20451;-71
2021/04/17 14:24:00;;;;;;;3.93;2.80;;;;;;;;;;5018405;28;20474;-71
2021/04/17 14:26:28;;;;;;;5.97;2.47;;;;;;;;;;5018221;28;20490;-71
2021/04/17 14:28:55;;;;;;;5.20;2.70;;;;;;;;;;5017714;28;20458;-71
2021/04/17 14:31:24;;;;;;;4.23;2.60;;;;;;;;;;5016892;28;20503;-71
2021/04/17 14:33:54;;;;;;;6.00;2.67;;;;;;;;;;5017314;28;20455;-71
2021/04/17 14:36:23;;;;;;;3.90;2.63;;;;;;;;;;5015897;28;20514;-74
2021/04/17 14:38:52;;;;;;;7.23;3.20;;;;;;;;;;5013900;28;20483;-72
2021/04/17 14:41:21;;;;;;;5.40;2.80;;;;;;;;;;5016268;28;20947;-71
2021/04/17 14:43:49;;;;;;;10.10;2.70;;;;;;;;;;5014460;28;20460;-71
2021/04/17 14:46:17;;;;;;;5.30;3.23;;;;;;;;;;5015362;28;20459;-71
2021/04/17 14:48:47;;;;;;;5.27;2.67;;;;;;;;;;5016173;28;20865;-72
2021/04/17 14:51:14;;;;;;;5.17;3.37;;;;;;;;;;5016183;28;20473;-71
2021/04/17 14:53:43;;;;;;;3.87;2.37;;;;;;;;;;5016043;28;20456;-71
2021/04/17 14:56:13;;;;;;;4.53;2.97;;;;;;;;;;5016164;28;20467;-72
2021/04/17 14:58:47;;;;;;;6.00;3.40;;;;;;;;;;5004736;28;20465;-71
2021/04/17 15:01:19;;;;;;;7.40;3.00;;;;;;;;;;4996585;28;21039;-72